VTBS/BKK METAR and TAF weather

Enter ICAO airport designator
Station Type Date Time Source
VTBS METAR 2021/03/03 20:30 UTC NOAA

VTBS 032030Z 09005KT 080V200 9999 FEW015 26/26 Q1012 NOSIG


Station Type Date Time Source
VTBS Decoded METAR 2021/03/03 20:30 UTC NOAA

Chon Buri, Thailand (VTBS) 13-22N 100-59E 2M
Mar 03, 2021 - 03:30 PM EST / 2021.03.03 2030 UTC
Wind: from the E (090 degrees) at 6 MPH (5 KT) (direction variable):0
Visibility: greater than 7 mile(s):0
Sky conditions: mostly clear
Temperature: 78 F (26 C)
Dew Point: 78 F (26 C)
Relative Humidity: 100%
Pressure (altimeter): 29.88 in. Hg (1012 hPa)
ob: VTBS 032030Z 09005KT 080V200 9999 FEW015 26/26 Q1012 NOSIG
cycle: 20

Station Type Date Time Source
VTBS TAF 2021/03/03 18:00 UTC NOAA

TAF VTBS 031700Z 0318/0424 18005KT 9999 FEW020
BECMG 0321/0323 09005KT 4000 BR
BECMG 0402/0404 18008KT 9999 NSW

Example: see airport list